sensor_id;sensor_type;location;lat;lon;timestamp;P1;durP1;ratioP1;P2;durP2;ratioP2
39486;SDS011;25173;50.430;18.926;2023-03-23T00:02:02;57.28;;;34.22;;
39486;SDS011;25173;50.430;18.926;2023-03-23T00:05:04;36.28;;;24.80;;
39486;SDS011;25173;50.430;18.926;2023-03-23T00:08:07;31.02;;;22.92;;
39486;SDS011;25173;50.430;18.926;2023-03-23T00:11:13;32.95;;;20.73;;
39486;SDS011;25173;50.430;18.926;2023-03-23T00:14:16;36.17;;;24.20;;
39486;SDS011;25173;50.430;18.926;2023-03-23T00:17:22;37.13;;;24.45;;
39486;SDS011;25173;50.430;18.926;2023-03-23T00:20:23;35.80;;;24.30;;
39486;SDS011;25173;50.430;18.926;2023-03-23T00:23:24;34.30;;;23.58;;
39486;SDS011;25173;50.430;18.926;2023-03-23T00:26:26;35.30;;;22.20;;
39486;SDS011;25173;50.430;18.926;2023-03-23T00:29:28;36.58;;;22.40;;
39486;SDS011;25173;50.430;18.926;2023-03-23T00:32:29;33.38;;;21.95;;
39486;SDS011;25173;50.430;18.926;2023-03-23T00:35:30;44.80;;;28.02;;
39486;SDS011;25173;50.430;18.926;2023-03-23T00:38:31;43.42;;;30.00;;
39486;SDS011;25173;50.430;18.926;2023-03-23T00:41:31;43.15;;;25.85;;
39486;SDS011;25173;50.430;18.926;2023-03-23T00:44:34;46.58;;;29.52;;
39486;SDS011;25173;50.430;18.926;2023-03-23T00:47:38;40.58;;;27.98;;
39486;SDS011;25173;50.430;18.926;2023-03-23T00:50:41;43.20;;;30.08;;
39486;SDS011;25173;50.430;18.926;2023-03-23T00:53:42;44.00;;;26.55;;
39486;SDS011;25173;50.430;18.926;2023-03-23T00:56:42;37.63;;;24.02;;
39486;SDS011;25173;50.430;18.926;2023-03-23T00:59:43;42.85;;;26.02;;
39486;SDS011;25173;50.430;18.926;2023-03-23T01:02:44;53.72;;;34.38;;
39486;SDS011;25173;50.430;18.926;2023-03-23T01:05:45;45.40;;;27.67;;
39486;SDS011;25173;50.430;18.926;2023-03-23T01:08:51;36.47;;;25.02;;
39486;SDS011;25173;50.430;18.926;2023-03-23T01:11:54;42.40;;;25.98;;
39486;SDS011;25173;50.430;18.926;2023-03-23T01:14:55;43.80;;;26.52;;
39486;SDS011;25173;50.430;18.926;2023-03-23T01:17:56;44.78;;;27.83;;
39486;SDS011;25173;50.430;18.926;2023-03-23T01:20:57;38.85;;;25.63;;
39486;SDS011;25173;50.430;18.926;2023-03-23T01:24:04;35.70;;;23.63;;
39486;SDS011;25173;50.430;18.926;2023-03-23T01:27:05;35.85;;;24.45;;
39486;SDS011;25173;50.430;18.926;2023-03-23T01:30:07;35.75;;;22.77;;
39486;SDS011;25173;50.430;18.926;2023-03-23T01:33:10;36.53;;;23.85;;
39486;SDS011;25173;50.430;18.926;2023-03-23T01:36:15;33.42;;;22.95;;
39486;SDS011;25173;50.430;18.926;2023-03-23T01:39:18;33.92;;;22.98;;
39486;SDS011;25173;50.430;18.926;2023-03-23T01:42:29;36.53;;;22.92;;
39486;SDS011;25173;50.430;18.926;2023-03-23T01:45:34;35.53;;;23.15;;
39486;SDS011;25173;50.430;18.926;2023-03-23T01:48:36;34.63;;;20.73;;
39486;SDS011;25173;50.430;18.926;2023-03-23T01:51:39;30.17;;;20.17;;
39486;SDS011;25173;50.430;18.926;2023-03-23T01:54:43;36.90;;;21.45;;
39486;SDS011;25173;50.430;18.926;2023-03-23T01:57:46;35.10;;;23.45;;
39486;SDS011;25173;50.430;18.926;2023-03-23T02:00:49;36.25;;;23.65;;
39486;SDS011;25173;50.430;18.926;2023-03-23T02:03:50;33.55;;;22.77;;
39486;SDS011;25173;50.430;18.926;2023-03-23T02:06:53;35.75;;;23.23;;
39486;SDS011;25173;50.430;18.926;2023-03-23T02:09:59;36.47;;;22.83;;
39486;SDS011;25173;50.430;18.926;2023-03-23T02:13:03;47.63;;;24.50;;
39486;SDS011;25173;50.430;18.926;2023-03-23T02:16:25;45.33;;;23.90;;
39486;SDS011;25173;50.430;18.926;2023-03-23T02:29:52;41.35;;;22.17;;
39486;SDS011;25173;50.430;18.926;2023-03-23T02:36:28;25.15;;;16.52;;
39486;SDS011;25173;50.430;18.926;2023-03-23T02:40:09;25.65;;;17.75;;
39486;SDS011;25173;50.430;18.926;2023-03-23T02:43:13;28.80;;;17.52;;
39486;SDS011;25173;50.430;18.926;2023-03-23T02:46:17;27.40;;;16.45;;
39486;SDS011;25173;50.430;18.926;2023-03-23T02:49:20;23.17;;;16.05;;
39486;SDS011;25173;50.430;18.926;2023-03-23T02:52:24;23.48;;;15.90;;
39486;SDS011;25173;50.430;18.926;2023-03-23T02:55:28;25.42;;;14.93;;
39486;SDS011;25173;50.430;18.926;2023-03-23T02:58:31;22.50;;;14.27;;
39486;SDS011;25173;50.430;18.926;2023-03-23T03:04:36;24.02;;;14.48;;
39486;SDS011;25173;50.430;18.926;2023-03-23T03:08:43;22.85;;;16.10;;
39486;SDS011;25173;50.430;18.926;2023-03-23T03:11:34;27.33;;;16.33;;
39486;SDS011;25173;50.430;18.926;2023-03-23T03:14:40;25.75;;;15.73;;
39486;SDS011;25173;50.430;18.926;2023-03-23T03:17:54;24.92;;;15.77;;
39486;SDS011;25173;50.430;18.926;2023-03-23T03:21:04;21.40;;;14.10;;
39486;SDS011;25173;50.430;18.926;2023-03-23T03:24:09;24.73;;;14.27;;
39486;SDS011;25173;50.430;18.926;2023-03-23T03:27:13;28.55;;;15.05;;
39486;SDS011;25173;50.430;18.926;2023-03-23T03:33:32;22.05;;;13.05;;
39486;SDS011;25173;50.430;18.926;2023-03-23T03:36:34;22.02;;;12.93;;
39486;SDS011;25173;50.430;18.926;2023-03-23T03:39:38;17.85;;;12.95;;
39486;SDS011;25173;50.430;18.926;2023-03-23T03:42:43;15.45;;;11.43;;
39486;SDS011;25173;50.430;18.926;2023-03-23T03:45:45;18.88;;;11.15;;
39486;SDS011;25173;50.430;18.926;2023-03-23T03:48:46;16.15;;;11.25;;
39486;SDS011;25173;50.430;18.926;2023-03-23T03:51:46;18.40;;;11.45;;
39486;SDS011;25173;50.430;18.926;2023-03-23T03:54:54;18.75;;;11.02;;
39486;SDS011;25173;50.430;18.926;2023-03-23T03:57:56;15.93;;;11.32;;
39486;SDS011;25173;50.430;18.926;2023-03-23T04:01:26;15.43;;;11.45;;
39486;SDS011;25173;50.430;18.926;2023-03-23T04:04:28;16.23;;;10.88;;
39486;SDS011;25173;50.430;18.926;2023-03-23T04:07:29;14.70;;;10.10;;
39486;SDS011;25173;50.430;18.926;2023-03-23T04:10:31;15.13;;;10.60;;
39486;SDS011;25173;50.430;18.926;2023-03-23T04:13:33;15.57;;;10.40;;
39486;SDS011;25173;50.430;18.926;2023-03-23T04:16:53;14.90;;;11.40;;
39486;SDS011;25173;50.430;18.926;2023-03-23T04:19:57;17.38;;;11.88;;
39486;SDS011;25173;50.430;18.926;2023-03-23T04:22:59;20.13;;;12.95;;
39486;SDS011;25173;50.430;18.926;2023-03-23T04:26:03;17.35;;;12.50;;
39486;SDS011;25173;50.430;18.926;2023-03-23T04:29:11;21.90;;;13.70;;
39486;SDS011;25173;50.430;18.926;2023-03-23T04:32:33;20.08;;;13.32;;
39486;SDS011;25173;50.430;18.926;2023-03-23T04:35:34;19.50;;;12.75;;
39486;SDS011;25173;50.430;18.926;2023-03-23T04:38:47;18.05;;;13.00;;
39486;SDS011;25173;50.430;18.926;2023-03-23T04:41:55;20.35;;;13.40;;
39486;SDS011;25173;50.430;18.926;2023-03-23T04:45:18;20.23;;;12.88;;
39486;SDS011;25173;50.430;18.926;2023-03-23T04:48:26;18.92;;;12.43;;
39486;SDS011;25173;50.430;18.926;2023-03-23T04:51:50;19.83;;;12.32;;
39486;SDS011;25173;50.430;18.926;2023-03-23T04:55:09;24.20;;;13.75;;
39486;SDS011;25173;50.430;18.926;2023-03-23T04:58:12;23.73;;;14.52;;
39486;SDS011;25173;50.430;18.926;2023-03-23T05:01:33;20.88;;;12.70;;
39486;SDS011;25173;50.430;18.926;2023-03-23T05:04:47;23.15;;;14.30;;
39486;SDS011;25173;50.430;18.926;2023-03-23T05:07:52;19.05;;;13.38;;
39486;SDS011;25173;50.430;18.926;2023-03-23T05:10:56;26.90;;;16.27;;
39486;SDS011;25173;50.430;18.926;2023-03-23T05:14:02;51.80;;;29.55;;
39486;SDS011;25173;50.430;18.926;2023-03-23T05:17:03;64.13;;;45.13;;
39486;SDS011;25173;50.430;18.926;2023-03-23T05:20:04;29.45;;;15.35;;
39486;SDS011;25173;50.430;18.926;2023-03-23T05:23:18;25.02;;;13.80;;
39486;SDS011;25173;50.430;18.926;2023-03-23T05:26:22;27.63;;;17.20;;
39486;SDS011;25173;50.430;18.926;2023-03-23T05:29:31;27.63;;;17.35;;
39486;SDS011;25173;50.430;18.926;2023-03-23T05:32:35;28.27;;;17.00;;
39486;SDS011;25173;50.430;18.926;2023-03-23T05:35:53;31.27;;;16.23;;
39486;SDS011;25173;50.430;18.926;2023-03-23T05:38:59;26.77;;;14.25;;
39486;SDS011;25173;50.430;18.926;2023-03-23T05:42:14;21.88;;;14.05;;
39486;SDS011;25173;50.430;18.926;2023-03-23T05:45:27;22.70;;;11.82;;
39486;SDS011;25173;50.430;18.926;2023-03-23T05:48:28;21.05;;;12.32;;
39486;SDS011;25173;50.430;18.926;2023-03-23T05:51:29;27.52;;;14.98;;
39486;SDS011;25173;50.430;18.926;2023-03-23T05:54:30;32.75;;;17.13;;
39486;SDS011;25173;50.430;18.926;2023-03-23T05:57:31;27.05;;;13.23;;
39486;SDS011;25173;50.430;18.926;2023-03-23T06:03:49;23.98;;;12.60;;
39486;SDS011;25173;50.430;18.926;2023-03-23T06:06:57;21.90;;;11.52;;
39486;SDS011;25173;50.430;18.926;2023-03-23T06:09:58;19.45;;;10.90;;
39486;SDS011;25173;50.430;18.926;2023-03-23T06:12:59;17.27;;;10.43;;
39486;SDS011;25173;50.430;18.926;2023-03-23T06:15:59;19.30;;;10.32;;
39486;SDS011;25173;50.430;18.926;2023-03-23T06:19:19;14.35;;;9.95;;
39486;SDS011;25173;50.430;18.926;2023-03-23T06:22:28;15.55;;;10.05;;
39486;SDS011;25173;50.430;18.926;2023-03-23T06:25:53;15.65;;;10.50;;
39486;SDS011;25173;50.430;18.926;2023-03-23T06:28:57;22.83;;;12.73;;
39486;SDS011;25173;50.430;18.926;2023-03-23T06:32:00;26.40;;;13.57;;
39486;SDS011;25173;50.430;18.926;2023-03-23T06:35:04;17.25;;;10.27;;
39486;SDS011;25173;50.430;18.926;2023-03-23T06:38:23;19.27;;;11.50;;
39486;SDS011;25173;50.430;18.926;2023-03-23T06:41:28;20.92;;;10.85;;
39486;SDS011;25173;50.430;18.926;2023-03-23T06:44:28;21.75;;;13.88;;
39486;SDS011;25173;50.430;18.926;2023-03-23T06:47:30;18.80;;;11.50;;
39486;SDS011;25173;50.430;18.926;2023-03-23T06:50:31;16.45;;;10.90;;
39486;SDS011;25173;50.430;18.926;2023-03-23T06:53:33;20.25;;;9.18;;
39486;SDS011;25173;50.430;18.926;2023-03-23T06:56:34;13.38;;;9.20;;
39486;SDS011;25173;50.430;18.926;2023-03-23T06:59:35;17.85;;;9.63;;
39486;SDS011;25173;50.430;18.926;2023-03-23T07:02:38;24.23;;;11.23;;
39486;SDS011;25173;50.430;18.926;2023-03-23T07:05:39;18.77;;;10.88;;
39486;SDS011;25173;50.430;18.926;2023-03-23T07:08:40;23.05;;;12.75;;
39486;SDS011;25173;50.430;18.926;2023-03-23T07:11:47;26.33;;;10.65;;
39486;SDS011;25173;50.430;18.926;2023-03-23T07:15:02;14.98;;;9.93;;
39486;SDS011;25173;50.430;18.926;2023-03-23T07:18:06;15.88;;;9.65;;
39486;SDS011;25173;50.430;18.926;2023-03-23T07:21:13;25.48;;;11.52;;
39486;SDS011;25173;50.430;18.926;2023-03-23T07:24:15;38.50;;;19.23;;
39486;SDS011;25173;50.430;18.926;2023-03-23T07:27:35;32.90;;;22.58;;
39486;SDS011;25173;50.430;18.926;2023-03-23T07:30:37;28.25;;;16.35;;
39486;SDS011;25173;50.430;18.926;2023-03-23T07:33:38;14.52;;;9.45;;
39486;SDS011;25173;50.430;18.926;2023-03-23T07:36:39;14.15;;;9.50;;
39486;SDS011;25173;50.430;18.926;2023-03-23T07:39:42;43.28;;;21.55;;
39486;SDS011;25173;50.430;18.926;2023-03-23T07:42:45;14.77;;;10.77;;
39486;SDS011;25173;50.430;18.926;2023-03-23T07:45:59;43.28;;;24.67;;
39486;SDS011;25173;50.430;18.926;2023-03-23T07:49:16;35.25;;;17.10;;
39486;SDS011;25173;50.430;18.926;2023-03-23T07:52:25;31.58;;;14.80;;
39486;SDS011;25173;50.430;18.926;2023-03-23T07:55:27;49.88;;;22.75;;
39486;SDS011;25173;50.430;18.926;2023-03-23T07:58:38;42.83;;;21.55;;
39486;SDS011;25173;50.430;18.926;2023-03-23T08:01:39;41.05;;;20.10;;
39486;SDS011;25173;50.430;18.926;2023-03-23T08:04:59;21.23;;;12.02;;
39486;SDS011;25173;50.430;18.926;2023-03-23T08:08:30;35.33;;;16.17;;
39486;SDS011;25173;50.430;18.926;2023-03-23T08:12:00;56.60;;;25.00;;
39486;SDS011;25173;50.430;18.926;2023-03-23T08:15:19;23.92;;;12.90;;
39486;SDS011;25173;50.430;18.926;2023-03-23T08:18:34;38.05;;;17.15;;
39486;SDS011;25173;50.430;18.926;2023-03-23T08:21:53;79.90;;;36.20;;
39486;SDS011;25173;50.430;18.926;2023-03-23T08:25:32;40.97;;;17.27;;
39486;SDS011;25173;50.430;18.926;2023-03-23T08:28:51;38.40;;;15.32;;
39486;SDS011;25173;50.430;18.926;2023-03-23T08:32:18;35.97;;;15.00;;
39486;SDS011;25173;50.430;18.926;2023-03-23T08:35:42;33.75;;;15.20;;
39486;SDS011;25173;50.430;18.926;2023-03-23T08:39:02;31.35;;;13.55;;
39486;SDS011;25173;50.430;18.926;2023-03-23T08:42:25;28.88;;;12.60;;
39486;SDS011;25173;50.430;18.926;2023-03-23T08:46:05;28.75;;;12.10;;
39486;SDS011;25173;50.430;18.926;2023-03-23T08:49:25;30.80;;;13.75;;
39486;SDS011;25173;50.430;18.926;2023-03-23T08:56:05;25.30;;;12.38;;
39486;SDS011;25173;50.430;18.926;2023-03-23T08:59:30;21.90;;;11.57;;
39486;SDS011;25173;50.430;18.926;2023-03-23T09:02:52;21.63;;;9.50;;
39486;SDS011;25173;50.430;18.926;2023-03-23T09:05:59;24.50;;;11.43;;
39486;SDS011;25173;50.430;18.926;2023-03-23T09:09:10;32.63;;;14.90;;
39486;SDS011;25173;50.430;18.926;2023-03-23T09:12:11;20.15;;;10.30;;
39486;SDS011;25173;50.430;18.926;2023-03-23T09:15:13;23.60;;;11.43;;
39486;SDS011;25173;50.430;18.926;2023-03-23T09:18:15;30.83;;;16.33;;
39486;SDS011;25173;50.430;18.926;2023-03-23T09:21:17;27.55;;;14.40;;
39486;SDS011;25173;50.430;18.926;2023-03-23T09:24:17;24.73;;;13.48;;
39486;SDS011;25173;50.430;18.926;2023-03-23T09:27:19;24.63;;;11.80;;
39486;SDS011;25173;50.430;18.926;2023-03-23T09:30:19;25.17;;;12.20;;
39486;SDS011;25173;50.430;18.926;2023-03-23T09:33:20;25.95;;;13.02;;
39486;SDS011;25173;50.430;18.926;2023-03-23T09:36:21;23.45;;;9.65;;
39486;SDS011;25173;50.430;18.926;2023-03-23T09:39:22;29.92;;;12.73;;
39486;SDS011;25173;50.430;18.926;2023-03-23T09:42:30;20.98;;;10.30;;
39486;SDS011;25173;50.430;18.926;2023-03-23T09:48:59;19.55;;;9.38;;
39486;SDS011;25173;50.430;18.926;2023-03-23T09:52:11;16.75;;;9.18;;
39486;SDS011;25173;50.430;18.926;2023-03-23T09:55:16;15.43;;;9.77;;
39486;SDS011;25173;50.430;18.926;2023-03-23T10:01:29;10.25;;;4.88;;
39486;SDS011;25173;50.430;18.926;2023-03-23T10:04:44;8.75;;;4.50;;
39486;SDS011;25173;50.430;18.926;2023-03-23T10:07:49;11.70;;;7.03;;
39486;SDS011;25173;50.430;18.926;2023-03-23T10:10:58;11.02;;;6.45;;
39486;SDS011;25173;50.430;18.926;2023-03-23T10:14:12;12.23;;;6.10;;
39486;SDS011;25173;50.430;18.926;2023-03-23T10:20:59;14.95;;;8.18;;
39486;SDS011;25173;50.430;18.926;2023-03-23T10:24:02;11.02;;;7.13;;
39486;SDS011;25173;50.430;18.926;2023-03-23T10:27:13;12.35;;;6.00;;
39486;SDS011;25173;50.430;18.926;2023-03-23T10:30:41;10.25;;;6.10;;
39486;SDS011;25173;50.430;18.926;2023-03-23T10:33:47;10.35;;;4.38;;
39486;SDS011;25173;50.430;18.926;2023-03-23T10:40:11;13.82;;;7.10;;
39486;SDS011;25173;50.430;18.926;2023-03-23T10:43:16;12.32;;;6.65;;
39486;SDS011;25173;50.430;18.926;2023-03-23T10:52:56;9.00;;;3.80;;
39486;SDS011;25173;50.430;18.926;2023-03-23T10:55:58;8.90;;;4.60;;
39486;SDS011;25173;50.430;18.926;2023-03-23T10:59:10;6.72;;;4.07;;
39486;SDS011;25173;50.430;18.926;2023-03-23T11:02:16;8.32;;;4.80;;
39486;SDS011;25173;50.430;18.926;2023-03-23T11:05:19;9.18;;;5.30;;
39486;SDS011;25173;50.430;18.926;2023-03-23T11:08:29;7.47;;;5.22;;
39486;SDS011;25173;50.430;18.926;2023-03-23T11:11:39;6.07;;;3.50;;
39486;SDS011;25173;50.430;18.926;2023-03-23T11:14:43;10.23;;;4.43;;
39486;SDS011;25173;50.430;18.926;2023-03-23T11:17:54;6.70;;;4.00;;
39486;SDS011;25173;50.430;18.926;2023-03-23T11:20:56;22.10;;;8.57;;
39486;SDS011;25173;50.430;18.926;2023-03-23T11:23:59;8.80;;;5.57;;
39486;SDS011;25173;50.430;18.926;2023-03-23T11:27:00;9.32;;;4.40;;
39486;SDS011;25173;50.430;18.926;2023-03-23T11:33:25;8.13;;;5.13;;
39486;SDS011;25173;50.430;18.926;2023-03-23T11:36:33;8.98;;;4.78;;
39486;SDS011;25173;50.430;18.926;2023-03-23T11:39:47;9.02;;;5.55;;
39486;SDS011;25173;50.430;18.926;2023-03-23T11:42:49;19.20;;;11.90;;
39486;SDS011;25173;50.430;18.926;2023-03-23T11:49:02;12.18;;;7.03;;
39486;SDS011;25173;50.430;18.926;2023-03-23T11:55:25;8.45;;;5.90;;
39486;SDS011;25173;50.430;18.926;2023-03-23T11:58:28;8.80;;;6.03;;
39486;SDS011;25173;50.430;18.926;2023-03-23T12:14:33;11.77;;;4.70;;
39486;SDS011;25173;50.430;18.926;2023-03-23T12:27:19;9.07;;;3.80;;
39486;SDS011;25173;50.430;18.926;2023-03-23T12:44:10;8.35;;;5.03;;
39486;SDS011;25173;50.430;18.926;2023-03-23T12:53:43;9.60;;;5.20;;
39486;SDS011;25173;50.430;18.926;2023-03-23T12:56:56;6.18;;;4.57;;
39486;SDS011;25173;50.430;18.926;2023-03-23T13:00:22;10.98;;;6.18;;
39486;SDS011;25173;50.430;18.926;2023-03-23T13:06:44;10.23;;;4.68;;
39486;SDS011;25173;50.430;18.926;2023-03-23T13:10:31;10.82;;;5.22;;
39486;SDS011;25173;50.430;18.926;2023-03-23T13:13:26;5.03;;;3.85;;
39486;SDS011;25173;50.430;18.926;2023-03-23T13:26:14;8.80;;;5.30;;
39486;SDS011;25173;50.430;18.926;2023-03-23T13:29:22;8.50;;;4.97;;
39486;SDS011;25173;50.430;18.926;2023-03-23T13:32:35;8.27;;;6.10;;
39486;SDS011;25173;50.430;18.926;2023-03-23T13:35:38;11.10;;;6.20;;
39486;SDS011;25173;50.430;18.926;2023-03-23T13:38:45;8.60;;;4.30;;
39486;SDS011;25173;50.430;18.926;2023-03-23T13:41:49;7.40;;;4.63;;
39486;SDS011;25173;50.430;18.926;2023-03-23T13:45:20;7.32;;;4.90;;
39486;SDS011;25173;50.430;18.926;2023-03-23T13:48:27;8.00;;;4.60;;
39486;SDS011;25173;50.430;18.926;2023-03-23T13:54:39;16.13;;;7.18;;
39486;SDS011;25173;50.430;18.926;2023-03-23T13:57:52;12.80;;;7.03;;
39486;SDS011;25173;50.430;18.926;2023-03-23T14:01:02;9.07;;;5.88;;
39486;SDS011;25173;50.430;18.926;2023-03-23T14:04:16;16.27;;;7.55;;
39486;SDS011;25173;50.430;18.926;2023-03-23T14:07:18;10.48;;;5.40;;
39486;SDS011;25173;50.430;18.926;2023-03-23T14:10:19;9.02;;;4.38;;
39486;SDS011;25173;50.430;18.926;2023-03-23T14:13:21;7.32;;;5.10;;
39486;SDS011;25173;50.430;18.926;2023-03-23T14:16:27;20.70;;;8.93;;
39486;SDS011;25173;50.430;18.926;2023-03-23T14:19:37;9.93;;;4.60;;
39486;SDS011;25173;50.430;18.926;2023-03-23T14:22:39;22.63;;;10.13;;
39486;SDS011;25173;50.430;18.926;2023-03-23T14:25:40;13.52;;;7.90;;
39486;SDS011;25173;50.430;18.926;2023-03-23T14:28:42;14.88;;;7.28;;
39486;SDS011;25173;50.430;18.926;2023-03-23T14:31:44;10.02;;;4.78;;
39486;SDS011;25173;50.430;18.926;2023-03-23T14:34:48;14.13;;;4.13;;
39486;SDS011;25173;50.430;18.926;2023-03-23T14:37:50;9.02;;;4.28;;
39486;SDS011;25173;50.430;18.926;2023-03-23T14:40:51;18.55;;;8.98;;
39486;SDS011;25173;50.430;18.926;2023-03-23T14:43:52;9.35;;;5.90;;
39486;SDS011;25173;50.430;18.926;2023-03-23T14:46:52;13.73;;;6.25;;
39486;SDS011;25173;50.430;18.926;2023-03-23T14:49:57;11.07;;;4.45;;
39486;SDS011;25173;50.430;18.926;2023-03-23T14:53:02;8.82;;;4.75;;
39486;SDS011;25173;50.430;18.926;2023-03-23T14:56:17;11.50;;;5.20;;
39486;SDS011;25173;50.430;18.926;2023-03-23T14:59:21;10.18;;;5.55;;
39486;SDS011;25173;50.430;18.926;2023-03-23T15:05:27;14.13;;;6.60;;
39486;SDS011;25173;50.430;18.926;2023-03-23T15:08:32;14.93;;;8.20;;
39486;SDS011;25173;50.430;18.926;2023-03-23T15:11:35;18.23;;;9.43;;
39486;SDS011;25173;50.430;18.926;2023-03-23T15:14:44;10.48;;;5.22;;
39486;SDS011;25173;50.430;18.926;2023-03-23T15:17:47;12.23;;;6.65;;
39486;SDS011;25173;50.430;18.926;2023-03-23T15:20:49;18.80;;;6.38;;
39486;SDS011;25173;50.430;18.926;2023-03-23T15:23:49;9.05;;;5.57;;
39486;SDS011;25173;50.430;18.926;2023-03-23T15:26:50;11.82;;;6.20;;
39486;SDS011;25173;50.430;18.926;2023-03-23T15:29:57;11.15;;;6.70;;
39486;SDS011;25173;50.430;18.926;2023-03-23T15:33:19;11.35;;;6.90;;
39486;SDS011;25173;50.430;18.926;2023-03-23T15:36:26;12.57;;;8.38;;
39486;SDS011;25173;50.430;18.926;2023-03-23T15:39:32;9.20;;;5.80;;
39486;SDS011;25173;50.430;18.926;2023-03-23T15:42:34;14.95;;;7.43;;
39486;SDS011;25173;50.430;18.926;2023-03-23T15:45:35;17.50;;;7.60;;
39486;SDS011;25173;50.430;18.926;2023-03-23T15:48:46;13.18;;;8.02;;
39486;SDS011;25173;50.430;18.926;2023-03-23T15:51:48;50.55;;;27.88;;
39486;SDS011;25173;50.430;18.926;2023-03-23T15:54:49;15.95;;;9.50;;
39486;SDS011;25173;50.430;18.926;2023-03-23T15:57:50;11.48;;;7.18;;
39486;SDS011;25173;50.430;18.926;2023-03-23T16:00:51;11.77;;;5.85;;
39486;SDS011;25173;50.430;18.926;2023-03-23T16:03:56;12.98;;;6.35;;
39486;SDS011;25173;50.430;18.926;2023-03-23T16:07:00;8.90;;;6.07;;
39486;SDS011;25173;50.430;18.926;2023-03-23T16:10:01;11.45;;;7.40;;
39486;SDS011;25173;50.430;18.926;2023-03-23T16:13:02;11.40;;;4.50;;
39486;SDS011;25173;50.430;18.926;2023-03-23T16:16:05;6.20;;;3.97;;
39486;SDS011;25173;50.430;18.926;2023-03-23T16:19:11;12.05;;;5.07;;
39486;SDS011;25173;50.430;18.926;2023-03-23T16:22:13;26.17;;;13.30;;
39486;SDS011;25173;50.430;18.926;2023-03-23T16:25:14;8.70;;;5.30;;
39486;SDS011;25173;50.430;18.926;2023-03-23T16:28:15;7.30;;;4.80;;
39486;SDS011;25173;50.430;18.926;2023-03-23T16:31:16;9.20;;;4.53;;
39486;SDS011;25173;50.430;18.926;2023-03-23T16:34:16;11.60;;;4.30;;
39486;SDS011;25173;50.430;18.926;2023-03-23T16:37:17;9.82;;;5.50;;
39486;SDS011;25173;50.430;18.926;2023-03-23T16:40:18;10.68;;;4.93;;
39486;SDS011;25173;50.430;18.926;2023-03-23T16:43:20;21.88;;;13.40;;
39486;SDS011;25173;50.430;18.926;2023-03-23T16:46:20;32.50;;;20.83;;
39486;SDS011;25173;50.430;18.926;2023-03-23T16:49:21;67.22;;;38.35;;
39486;SDS011;25173;50.430;18.926;2023-03-23T16:52:21;93.80;;;47.10;;
39486;SDS011;25173;50.430;18.926;2023-03-23T16:55:22;105.72;;;49.17;;
39486;SDS011;25173;50.430;18.926;2023-03-23T16:58:26;89.97;;;41.92;;
39486;SDS011;25173;50.430;18.926;2023-03-23T17:01:27;102.63;;;49.63;;
39486;SDS011;25173;50.430;18.926;2023-03-23T17:04:28;88.80;;;49.78;;
39486;SDS011;25173;50.430;18.926;2023-03-23T17:07:29;144.73;;;72.45;;
39486;SDS011;25173;50.430;18.926;2023-03-23T17:10:30;79.25;;;41.75;;
39486;SDS011;25173;50.430;18.926;2023-03-23T17:13:31;86.60;;;47.10;;
39486;SDS011;25173;50.430;18.926;2023-03-23T17:16:32;60.00;;;39.38;;
39486;SDS011;25173;50.430;18.926;2023-03-23T17:19:32;37.70;;;22.40;;
39486;SDS011;25173;50.430;18.926;2023-03-23T17:22:33;41.50;;;27.13;;
39486;SDS011;25173;50.430;18.926;2023-03-23T17:25:33;37.83;;;23.88;;
39486;SDS011;25173;50.430;18.926;2023-03-23T17:28:34;50.15;;;31.13;;
39486;SDS011;25173;50.430;18.926;2023-03-23T17:31:35;193.57;;;98.45;;
39486;SDS011;25173;50.430;18.926;2023-03-23T17:34:36;135.57;;;76.20;;
39486;SDS011;25173;50.430;18.926;2023-03-23T17:37:36;177.35;;;79.28;;
39486;SDS011;25173;50.430;18.926;2023-03-23T17:40:38;187.77;;;91.20;;
39486;SDS011;25173;50.430;18.926;2023-03-23T17:43:39;77.63;;;41.97;;
39486;SDS011;25173;50.430;18.926;2023-03-23T17:46:40;47.05;;;28.30;;
39486;SDS011;25173;50.430;18.926;2023-03-23T17:49:41;50.35;;;31.75;;
39486;SDS011;25173;50.430;18.926;2023-03-23T17:52:41;35.83;;;20.40;;
39486;SDS011;25173;50.430;18.926;2023-03-23T17:55:42;32.05;;;19.73;;
39486;SDS011;25173;50.430;18.926;2023-03-23T17:58:44;38.75;;;22.83;;
39486;SDS011;25173;50.430;18.926;2023-03-23T18:01:44;31.80;;;17.35;;
39486;SDS011;25173;50.430;18.926;2023-03-23T18:04:47;19.67;;;12.55;;
39486;SDS011;25173;50.430;18.926;2023-03-23T18:07:48;18.08;;;10.73;;
39486;SDS011;25173;50.430;18.926;2023-03-23T18:10:49;11.82;;;7.93;;
39486;SDS011;25173;50.430;18.926;2023-03-23T18:13:50;25.45;;;15.30;;
39486;SDS011;25173;50.430;18.926;2023-03-23T18:16:50;34.08;;;19.35;;
39486;SDS011;25173;50.430;18.926;2023-03-23T18:19:52;34.80;;;16.10;;
39486;SDS011;25173;50.430;18.926;2023-03-23T18:22:53;39.22;;;21.90;;
39486;SDS011;25173;50.430;18.926;2023-03-23T18:25:54;86.28;;;46.25;;
39486;SDS011;25173;50.430;18.926;2023-03-23T18:28:55;54.05;;;28.00;;
39486;SDS011;25173;50.430;18.926;2023-03-23T18:31:55;49.40;;;24.83;;
39486;SDS011;25173;50.430;18.926;2023-03-23T18:34:56;45.30;;;28.75;;
39486;SDS011;25173;50.430;18.926;2023-03-23T18:37:56;60.08;;;33.28;;
39486;SDS011;25173;50.430;18.926;2023-03-23T18:40:57;50.05;;;29.30;;
39486;SDS011;25173;50.430;18.926;2023-03-23T18:43:58;48.60;;;27.83;;
39486;SDS011;25173;50.430;18.926;2023-03-23T18:46:59;50.85;;;29.45;;
39486;SDS011;25173;50.430;18.926;2023-03-23T18:49:59;40.88;;;24.77;;
39486;SDS011;25173;50.430;18.926;2023-03-23T18:53:00;37.65;;;23.50;;
39486;SDS011;25173;50.430;18.926;2023-03-23T18:56:08;41.75;;;26.30;;
39486;SDS011;25173;50.430;18.926;2023-03-23T18:59:10;56.22;;;31.17;;
39486;SDS011;25173;50.430;18.926;2023-03-23T19:02:11;52.47;;;27.73;;
39486;SDS011;25173;50.430;18.926;2023-03-23T19:05:12;46.83;;;25.45;;
39486;SDS011;25173;50.430;18.926;2023-03-23T19:08:13;56.42;;;33.33;;
39486;SDS011;25173;50.430;18.926;2023-03-23T19:11:14;46.17;;;26.13;;
39486;SDS011;25173;50.430;18.926;2023-03-23T19:14:16;34.72;;;20.73;;
39486;SDS011;25173;50.430;18.926;2023-03-23T19:17:18;44.13;;;26.17;;
39486;SDS011;25173;50.430;18.926;2023-03-23T19:20:19;26.67;;;16.88;;
39486;SDS011;25173;50.430;18.926;2023-03-23T19:23:21;32.83;;;18.00;;
39486;SDS011;25173;50.430;18.926;2023-03-23T19:26:24;40.33;;;24.10;;
39486;SDS011;25173;50.430;18.926;2023-03-23T19:29:33;36.95;;;22.15;;
39486;SDS011;25173;50.430;18.926;2023-03-23T19:32:37;42.88;;;26.50;;
39486;SDS011;25173;50.430;18.926;2023-03-23T19:35:38;37.97;;;24.70;;
39486;SDS011;25173;50.430;18.926;2023-03-23T19:38:39;49.20;;;30.08;;
39486;SDS011;25173;50.430;18.926;2023-03-23T19:41:39;53.83;;;33.45;;
39486;SDS011;25173;50.430;18.926;2023-03-23T19:44:40;65.32;;;42.20;;
39486;SDS011;25173;50.430;18.926;2023-03-23T19:47:41;38.63;;;25.20;;
39486;SDS011;25173;50.430;18.926;2023-03-23T19:50:42;34.97;;;24.00;;
39486;SDS011;25173;50.430;18.926;2023-03-23T19:53:43;32.40;;;17.98;;
39486;SDS011;25173;50.430;18.926;2023-03-23T19:56:44;36.70;;;19.50;;